sensor_id;sensor_type;location;lat;lon;timestamp;P1;durP1;ratioP1;P2;durP2;ratioP2
56860;SDS011;42744;51.094;3.490;2023-06-01T00:00:03;28.33;;;16.70;;
56860;SDS011;42744;51.094;3.490;2023-06-01T00:02:34;25.47;;;16.60;;
56860;SDS011;42744;51.094;3.490;2023-06-01T00:05:01;27.50;;;16.83;;
56860;SDS011;42744;51.094;3.490;2023-06-01T00:07:27;27.63;;;16.47;;
56860;SDS011;42744;51.094;3.490;2023-06-01T00:09:55;26.13;;;15.97;;
56860;SDS011;42744;51.094;3.490;2023-06-01T00:12:21;22.70;;;16.27;;
56860;SDS011;42744;51.094;3.490;2023-06-01T00:14:47;25.83;;;16.43;;
56860;SDS011;42744;51.094;3.490;2023-06-01T00:17:13;27.93;;;16.33;;
56860;SDS011;42744;51.094;3.490;2023-06-01T00:19:39;27.30;;;15.77;;
56860;SDS011;42744;51.094;3.490;2023-06-01T00:22:05;24.13;;;15.97;;
56860;SDS011;42744;51.094;3.490;2023-06-01T00:24:32;28.20;;;18.30;;
56860;SDS011;42744;51.094;3.490;2023-06-01T00:26:58;24.77;;;17.00;;
56860;SDS011;42744;51.094;3.490;2023-06-01T00:29:25;30.90;;;17.20;;
56860;SDS011;42744;51.094;3.490;2023-06-01T00:31:51;25.97;;;17.07;;
56860;SDS011;42744;51.094;3.490;2023-06-01T00:34:18;24.70;;;17.50;;
56860;SDS011;42744;51.094;3.490;2023-06-01T00:36:45;25.40;;;16.27;;
56860;SDS011;42744;51.094;3.490;2023-06-01T00:39:11;22.77;;;16.03;;
56860;SDS011;42744;51.094;3.490;2023-06-01T00:41:37;25.30;;;16.00;;
56860;SDS011;42744;51.094;3.490;2023-06-01T00:44:04;26.73;;;16.53;;
56860;SDS011;42744;51.094;3.490;2023-06-01T00:46:30;32.67;;;17.07;;
56860;SDS011;42744;51.094;3.490;2023-06-01T00:48:57;25.57;;;16.60;;
56860;SDS011;42744;51.094;3.490;2023-06-01T00:51:23;24.03;;;16.00;;
56860;SDS011;42744;51.094;3.490;2023-06-01T00:53:49;27.57;;;16.43;;
56860;SDS011;42744;51.094;3.490;2023-06-01T00:56:16;27.53;;;16.53;;
56860;SDS011;42744;51.094;3.490;2023-06-01T00:58:43;28.47;;;16.67;;
56860;SDS011;42744;51.094;3.490;2023-06-01T01:01:09;29.17;;;16.83;;
56860;SDS011;42744;51.094;3.490;2023-06-01T01:03:47;26.57;;;17.17;;
56860;SDS011;42744;51.094;3.490;2023-06-01T01:11:41;27.87;;;16.90;;
56860;SDS011;42744;51.094;3.490;2023-06-01T01:16:46;26.50;;;15.87;;
56860;SDS011;42744;51.094;3.490;2023-06-01T01:22:22;24.10;;;14.90;;
56860;SDS011;42744;51.094;3.490;2023-06-01T01:30:54;24.90;;;15.23;;
56860;SDS011;42744;51.094;3.490;2023-06-01T01:33:23;24.40;;;15.00;;
56860;SDS011;42744;51.094;3.490;2023-06-01T01:35:51;21.10;;;15.73;;
56860;SDS011;42744;51.094;3.490;2023-06-01T01:38:18;29.87;;;16.60;;
56860;SDS011;42744;51.094;3.490;2023-06-01T01:40:44;24.07;;;15.77;;
56860;SDS011;42744;51.094;3.490;2023-06-01T01:43:10;28.33;;;16.60;;
56860;SDS011;42744;51.094;3.490;2023-06-01T01:45:40;28.23;;;17.13;;
56860;SDS011;42744;51.094;3.490;2023-06-01T01:50:44;29.97;;;17.97;;
56860;SDS011;42744;51.094;3.490;2023-06-01T01:53:17;28.57;;;18.13;;
56860;SDS011;42744;51.094;3.490;2023-06-01T01:55:45;29.67;;;17.57;;
56860;SDS011;42744;51.094;3.490;2023-06-01T01:58:14;29.10;;;17.67;;
56860;SDS011;42744;51.094;3.490;2023-06-01T02:00:41;28.83;;;18.83;;
56860;SDS011;42744;51.094;3.490;2023-06-01T02:03:16;32.43;;;19.70;;
56860;SDS011;42744;51.094;3.490;2023-06-01T02:05:43;28.63;;;18.40;;
56860;SDS011;42744;51.094;3.490;2023-06-01T02:08:10;31.57;;;18.80;;
56860;SDS011;42744;51.094;3.490;2023-06-01T02:10:37;26.50;;;19.27;;
56860;SDS011;42744;51.094;3.490;2023-06-01T02:13:03;27.13;;;18.60;;
56860;SDS011;42744;51.094;3.490;2023-06-01T02:15:30;30.80;;;18.70;;
56860;SDS011;42744;51.094;3.490;2023-06-01T02:17:56;27.70;;;19.97;;
56860;SDS011;42744;51.094;3.490;2023-06-01T02:20:22;34.03;;;21.13;;
56860;SDS011;42744;51.094;3.490;2023-06-01T02:22:48;27.33;;;18.93;;
56860;SDS011;42744;51.094;3.490;2023-06-01T02:25:14;31.97;;;20.43;;
56860;SDS011;42744;51.094;3.490;2023-06-01T02:27:40;30.90;;;19.93;;
56860;SDS011;42744;51.094;3.490;2023-06-01T02:30:07;28.00;;;19.00;;
56860;SDS011;42744;51.094;3.490;2023-06-01T02:32:35;36.17;;;20.20;;
56860;SDS011;42744;51.094;3.490;2023-06-01T02:35:03;36.20;;;21.33;;
56860;SDS011;42744;51.094;3.490;2023-06-01T02:37:31;31.97;;;21.00;;
56860;SDS011;42744;51.094;3.490;2023-06-01T02:39:57;31.87;;;22.07;;
56860;SDS011;42744;51.094;3.490;2023-06-01T02:42:23;31.53;;;20.73;;
56860;SDS011;42744;51.094;3.490;2023-06-01T02:44:49;35.27;;;21.67;;
56860;SDS011;42744;51.094;3.490;2023-06-01T02:47:16;45.67;;;26.13;;
56860;SDS011;42744;51.094;3.490;2023-06-01T02:49:42;40.63;;;25.00;;
56860;SDS011;42744;51.094;3.490;2023-06-01T02:52:08;51.60;;;30.87;;
56860;SDS011;42744;51.094;3.490;2023-06-01T02:54:34;57.83;;;34.83;;
56860;SDS011;42744;51.094;3.490;2023-06-01T02:57:02;71.17;;;41.73;;
56860;SDS011;42744;51.094;3.490;2023-06-01T02:59:28;78.87;;;50.83;;
56860;SDS011;42744;51.094;3.490;2023-06-01T03:01:55;83.73;;;51.60;;
56860;SDS011;42744;51.094;3.490;2023-06-01T03:04:21;99.20;;;56.00;;
56860;SDS011;42744;51.094;3.490;2023-06-01T03:06:48;99.47;;;52.87;;
56860;SDS011;42744;51.094;3.490;2023-06-01T03:09:16;95.70;;;53.77;;
56860;SDS011;42744;51.094;3.490;2023-06-01T03:11:42;92.77;;;49.70;;
56860;SDS011;42744;51.094;3.490;2023-06-01T03:14:08;90.70;;;49.23;;
56860;SDS011;42744;51.094;3.490;2023-06-01T03:16:35;89.60;;;47.13;;
56860;SDS011;42744;51.094;3.490;2023-06-01T03:19:01;80.77;;;43.93;;
56860;SDS011;42744;51.094;3.490;2023-06-01T03:21:27;82.20;;;42.63;;
56860;SDS011;42744;51.094;3.490;2023-06-01T03:23:54;76.30;;;44.10;;
56860;SDS011;42744;51.094;3.490;2023-06-01T03:26:20;74.17;;;41.63;;
56860;SDS011;42744;51.094;3.490;2023-06-01T03:28:46;74.00;;;43.53;;
56860;SDS011;42744;51.094;3.490;2023-06-01T03:31:13;74.23;;;43.73;;
56860;SDS011;42744;51.094;3.490;2023-06-01T03:33:39;73.23;;;44.87;;
56860;SDS011;42744;51.094;3.490;2023-06-01T03:36:05;74.37;;;46.60;;
56860;SDS011;42744;51.094;3.490;2023-06-01T03:38:32;86.43;;;49.10;;
56860;SDS011;42744;51.094;3.490;2023-06-01T03:41:00;88.67;;;49.23;;
56860;SDS011;42744;51.094;3.490;2023-06-01T03:43:29;82.20;;;51.10;;
56860;SDS011;42744;51.094;3.490;2023-06-01T03:45:56;90.20;;;53.93;;
56860;SDS011;42744;51.094;3.490;2023-06-01T03:48:22;89.90;;;53.50;;
56860;SDS011;42744;51.094;3.490;2023-06-01T03:50:48;87.47;;;54.13;;
56860;SDS011;42744;51.094;3.490;2023-06-01T03:53:15;86.23;;;54.90;;
56860;SDS011;42744;51.094;3.490;2023-06-01T03:55:40;86.70;;;52.90;;
56860;SDS011;42744;51.094;3.490;2023-06-01T03:58:07;79.87;;;50.97;;
56860;SDS011;42744;51.094;3.490;2023-06-01T04:00:34;74.33;;;50.13;;
56860;SDS011;42744;51.094;3.490;2023-06-01T04:03:02;71.00;;;47.87;;
56860;SDS011;42744;51.094;3.490;2023-06-01T04:05:32;73.07;;;45.20;;
56860;SDS011;42744;51.094;3.490;2023-06-01T04:07:59;68.87;;;44.30;;
56860;SDS011;42744;51.094;3.490;2023-06-01T04:10:25;60.77;;;42.47;;
56860;SDS011;42744;51.094;3.490;2023-06-01T04:12:51;60.67;;;40.87;;
56860;SDS011;42744;51.094;3.490;2023-06-01T04:15:18;57.80;;;39.30;;
56860;SDS011;42744;51.094;3.490;2023-06-01T04:17:46;57.90;;;39.27;;
56860;SDS011;42744;51.094;3.490;2023-06-01T04:20:13;57.80;;;37.97;;
56860;SDS011;42744;51.094;3.490;2023-06-01T04:22:41;51.30;;;34.80;;
56860;SDS011;42744;51.094;3.490;2023-06-01T04:25:09;51.63;;;34.73;;
56860;SDS011;42744;51.094;3.490;2023-06-01T04:27:37;52.57;;;35.70;;
56860;SDS011;42744;51.094;3.490;2023-06-01T04:30:11;47.57;;;31.97;;
56860;SDS011;42744;51.094;3.490;2023-06-01T04:32:37;48.57;;;32.23;;
56860;SDS011;42744;51.094;3.490;2023-06-01T04:35:04;46.70;;;31.47;;
56860;SDS011;42744;51.094;3.490;2023-06-01T04:37:32;46.60;;;30.00;;
56860;SDS011;42744;51.094;3.490;2023-06-01T04:40:04;47.23;;;29.97;;
56860;SDS011;42744;51.094;3.490;2023-06-01T04:42:34;44.97;;;29.63;;
56860;SDS011;42744;51.094;3.490;2023-06-01T04:45:01;44.27;;;30.37;;
56860;SDS011;42744;51.094;3.490;2023-06-01T04:47:32;42.80;;;27.53;;
56860;SDS011;42744;51.094;3.490;2023-06-01T04:50:00;44.53;;;29.33;;
56860;SDS011;42744;51.094;3.490;2023-06-01T04:52:28;43.17;;;28.17;;
56860;SDS011;42744;51.094;3.490;2023-06-01T04:54:54;46.30;;;28.53;;
56860;SDS011;42744;51.094;3.490;2023-06-01T04:57:21;43.03;;;27.97;;
56860;SDS011;42744;51.094;3.490;2023-06-01T04:59:48;44.33;;;28.47;;
56860;SDS011;42744;51.094;3.490;2023-06-01T05:02:15;45.33;;;28.50;;
56860;SDS011;42744;51.094;3.490;2023-06-01T05:04:41;40.97;;;27.00;;
56860;SDS011;42744;51.094;3.490;2023-06-01T05:07:07;43.93;;;26.07;;
56860;SDS011;42744;51.094;3.490;2023-06-01T05:09:33;39.70;;;27.47;;
56860;SDS011;42744;51.094;3.490;2023-06-01T05:12:00;39.13;;;26.00;;
56860;SDS011;42744;51.094;3.490;2023-06-01T05:14:26;38.90;;;26.70;;
56860;SDS011;42744;51.094;3.490;2023-06-01T05:16:52;39.90;;;26.23;;
56860;SDS011;42744;51.094;3.490;2023-06-01T05:19:19;38.83;;;25.13;;
56860;SDS011;42744;51.094;3.490;2023-06-01T05:21:45;36.37;;;26.33;;
56860;SDS011;42744;51.094;3.490;2023-06-01T05:24:12;38.57;;;25.40;;
56860;SDS011;42744;51.094;3.490;2023-06-01T05:26:38;35.67;;;24.80;;
56860;SDS011;42744;51.094;3.490;2023-06-01T05:29:05;36.73;;;25.10;;
56860;SDS011;42744;51.094;3.490;2023-06-01T05:31:31;34.47;;;23.63;;
56860;SDS011;42744;51.094;3.490;2023-06-01T05:33:58;30.43;;;22.63;;
56860;SDS011;42744;51.094;3.490;2023-06-01T05:36:25;32.33;;;22.47;;
56860;SDS011;42744;51.094;3.490;2023-06-01T05:38:51;30.67;;;21.40;;
56860;SDS011;42744;51.094;3.490;2023-06-01T05:41:17;25.97;;;18.73;;
56860;SDS011;42744;51.094;3.490;2023-06-01T05:43:43;24.27;;;18.10;;
56860;SDS011;42744;51.094;3.490;2023-06-01T05:46:09;28.37;;;19.00;;
56860;SDS011;42744;51.094;3.490;2023-06-01T05:48:36;24.50;;;17.40;;
56860;SDS011;42744;51.094;3.490;2023-06-01T05:51:02;24.50;;;16.57;;
56860;SDS011;42744;51.094;3.490;2023-06-01T05:53:28;26.03;;;17.33;;
56860;SDS011;42744;51.094;3.490;2023-06-01T05:55:55;29.90;;;19.47;;
56860;SDS011;42744;51.094;3.490;2023-06-01T05:58:21;29.23;;;19.73;;
56860;SDS011;42744;51.094;3.490;2023-06-01T06:00:47;26.27;;;18.97;;
56860;SDS011;42744;51.094;3.490;2023-06-01T06:03:14;28.67;;;20.07;;
56860;SDS011;42744;51.094;3.490;2023-06-01T06:05:40;27.97;;;19.20;;
56860;SDS011;42744;51.094;3.490;2023-06-01T06:08:06;26.60;;;19.47;;
56860;SDS011;42744;51.094;3.490;2023-06-01T06:10:32;27.07;;;18.33;;
56860;SDS011;42744;51.094;3.490;2023-06-01T06:12:58;23.63;;;17.00;;
56860;SDS011;42744;51.094;3.490;2023-06-01T06:15:24;17.43;;;13.07;;
56860;SDS011;42744;51.094;3.490;2023-06-01T06:17:50;18.27;;;12.13;;
56860;SDS011;42744;51.094;3.490;2023-06-01T06:20:16;21.33;;;12.07;;
56860;SDS011;42744;51.094;3.490;2023-06-01T06:22:55;16.47;;;11.10;;
56860;SDS011;42744;51.094;3.490;2023-06-01T06:25:22;18.50;;;10.73;;
56860;SDS011;42744;51.094;3.490;2023-06-01T06:27:48;17.57;;;10.70;;
56860;SDS011;42744;51.094;3.490;2023-06-01T06:30:14;11.40;;;9.00;;
56860;SDS011;42744;51.094;3.490;2023-06-01T06:32:40;16.03;;;10.23;;
56860;SDS011;42744;51.094;3.490;2023-06-01T06:35:06;15.27;;;10.73;;
56860;SDS011;42744;51.094;3.490;2023-06-01T06:37:38;14.97;;;10.70;;
56860;SDS011;42744;51.094;3.490;2023-06-01T06:40:06;17.27;;;11.23;;
56860;SDS011;42744;51.094;3.490;2023-06-01T06:42:32;15.17;;;11.13;;
56860;SDS011;42744;51.094;3.490;2023-06-01T06:44:58;14.20;;;10.67;;
56860;SDS011;42744;51.094;3.490;2023-06-01T06:47:24;13.47;;;9.77;;
56860;SDS011;42744;51.094;3.490;2023-06-01T06:49:50;13.70;;;9.47;;
56860;SDS011;42744;51.094;3.490;2023-06-01T06:52:20;14.07;;;9.43;;
56860;SDS011;42744;51.094;3.490;2023-06-01T06:54:46;11.13;;;9.40;;
56860;SDS011;42744;51.094;3.490;2023-06-01T06:57:12;15.90;;;9.53;;
56860;SDS011;42744;51.094;3.490;2023-06-01T06:59:38;13.67;;;9.03;;
56860;SDS011;42744;51.094;3.490;2023-06-01T07:02:04;13.97;;;10.47;;
56860;SDS011;42744;51.094;3.490;2023-06-01T07:04:31;15.53;;;10.13;;
56860;SDS011;42744;51.094;3.490;2023-06-01T07:06:57;12.87;;;9.97;;
56860;SDS011;42744;51.094;3.490;2023-06-01T07:09:23;14.00;;;10.53;;
56860;SDS011;42744;51.094;3.490;2023-06-01T07:11:49;15.73;;;10.37;;
56860;SDS011;42744;51.094;3.490;2023-06-01T07:14:15;15.63;;;10.27;;
56860;SDS011;42744;51.094;3.490;2023-06-01T07:16:41;15.10;;;9.80;;
56860;SDS011;42744;51.094;3.490;2023-06-01T07:19:07;14.37;;;10.20;;
56860;SDS011;42744;51.094;3.490;2023-06-01T07:21:33;19.23;;;11.17;;
56860;SDS011;42744;51.094;3.490;2023-06-01T07:24:01;18.47;;;11.03;;
56860;SDS011;42744;51.094;3.490;2023-06-01T07:26:29;17.50;;;10.17;;
56860;SDS011;42744;51.094;3.490;2023-06-01T07:28:55;16.10;;;10.17;;
56860;SDS011;42744;51.094;3.490;2023-06-01T07:31:22;21.93;;;10.53;;
56860;SDS011;42744;51.094;3.490;2023-06-01T07:33:49;15.53;;;10.27;;
56860;SDS011;42744;51.094;3.490;2023-06-01T07:36:17;15.07;;;10.37;;
56860;SDS011;42744;51.094;3.490;2023-06-01T07:38:44;18.43;;;11.20;;
56860;SDS011;42744;51.094;3.490;2023-06-01T07:41:11;14.97;;;10.40;;
56860;SDS011;42744;51.094;3.490;2023-06-01T07:43:37;13.40;;;10.07;;
56860;SDS011;42744;51.094;3.490;2023-06-01T07:46:04;13.87;;;10.17;;
56860;SDS011;42744;51.094;3.490;2023-06-01T07:48:30;13.20;;;9.20;;
56860;SDS011;42744;51.094;3.490;2023-06-01T07:51:04;12.77;;;9.60;;
56860;SDS011;42744;51.094;3.490;2023-06-01T07:53:31;16.33;;;9.30;;
56860;SDS011;42744;51.094;3.490;2023-06-01T07:55:57;17.17;;;10.87;;
56860;SDS011;42744;51.094;3.490;2023-06-01T07:58:23;19.27;;;10.50;;
56860;SDS011;42744;51.094;3.490;2023-06-01T08:00:49;15.33;;;10.13;;
56860;SDS011;42744;51.094;3.490;2023-06-01T08:03:16;12.47;;;9.47;;
56860;SDS011;42744;51.094;3.490;2023-06-01T08:05:42;15.23;;;9.77;;
56860;SDS011;42744;51.094;3.490;2023-06-01T08:08:09;15.97;;;11.00;;
56860;SDS011;42744;51.094;3.490;2023-06-01T08:10:36;17.13;;;10.07;;
56860;SDS011;42744;51.094;3.490;2023-06-01T08:13:04;16.20;;;10.67;;
56860;SDS011;42744;51.094;3.490;2023-06-01T08:15:32;14.60;;;10.10;;
56860;SDS011;42744;51.094;3.490;2023-06-01T08:17:59;14.10;;;9.83;;
56860;SDS011;42744;51.094;3.490;2023-06-01T08:20:25;18.07;;;11.10;;
56860;SDS011;42744;51.094;3.490;2023-06-01T08:22:52;18.90;;;10.90;;
56860;SDS011;42744;51.094;3.490;2023-06-01T08:25:18;17.50;;;10.27;;
56860;SDS011;42744;51.094;3.490;2023-06-01T08:27:44;17.50;;;11.10;;
56860;SDS011;42744;51.094;3.490;2023-06-01T08:30:11;16.97;;;10.93;;
56860;SDS011;42744;51.094;3.490;2023-06-01T08:32:37;13.90;;;9.67;;
56860;SDS011;42744;51.094;3.490;2023-06-01T08:35:04;15.60;;;10.07;;
56860;SDS011;42744;51.094;3.490;2023-06-01T08:37:31;14.57;;;10.17;;
56860;SDS011;42744;51.094;3.490;2023-06-01T08:39:58;15.27;;;10.60;;
56860;SDS011;42744;51.094;3.490;2023-06-01T08:42:35;20.07;;;10.87;;
56860;SDS011;42744;51.094;3.490;2023-06-01T08:45:10;16.50;;;10.90;;
56860;SDS011;42744;51.094;3.490;2023-06-01T08:47:37;16.53;;;12.30;;
56860;SDS011;42744;51.094;3.490;2023-06-01T08:50:04;13.00;;;9.77;;
56860;SDS011;42744;51.094;3.490;2023-06-01T08:52:31;12.70;;;9.93;;
56860;SDS011;42744;51.094;3.490;2023-06-01T08:55:00;18.57;;;11.47;;
56860;SDS011;42744;51.094;3.490;2023-06-01T08:57:28;20.13;;;10.83;;
56860;SDS011;42744;51.094;3.490;2023-06-01T08:59:58;14.20;;;10.63;;
56860;SDS011;42744;51.094;3.490;2023-06-01T09:02:25;16.57;;;11.50;;
56860;SDS011;42744;51.094;3.490;2023-06-01T09:04:52;14.20;;;10.30;;
56860;SDS011;42744;51.094;3.490;2023-06-01T09:07:18;18.60;;;12.13;;
56860;SDS011;42744;51.094;3.490;2023-06-01T09:09:45;16.17;;;11.23;;
56860;SDS011;42744;51.094;3.490;2023-06-01T09:12:18;18.07;;;12.33;;
56860;SDS011;42744;51.094;3.490;2023-06-01T09:15:04;15.10;;;12.03;;
56860;SDS011;42744;51.094;3.490;2023-06-01T09:17:43;16.97;;;12.73;;
56860;SDS011;42744;51.094;3.490;2023-06-01T09:20:21;14.60;;;10.97;;
56860;SDS011;42744;51.094;3.490;2023-06-01T09:22:48;14.27;;;10.53;;
56860;SDS011;42744;51.094;3.490;2023-06-01T09:25:14;14.17;;;11.47;;
56860;SDS011;42744;51.094;3.490;2023-06-01T09:27:44;15.03;;;11.77;;
56860;SDS011;42744;51.094;3.490;2023-06-01T09:30:12;17.17;;;12.10;;
56860;SDS011;42744;51.094;3.490;2023-06-01T09:32:39;16.30;;;13.37;;
56860;SDS011;42744;51.094;3.490;2023-06-01T09:35:06;18.00;;;13.47;;
56860;SDS011;42744;51.094;3.490;2023-06-01T09:37:36;18.77;;;13.27;;
56860;SDS011;42744;51.094;3.490;2023-06-01T09:40:17;18.43;;;13.40;;
56860;SDS011;42744;51.094;3.490;2023-06-01T09:42:43;17.37;;;12.27;;
56860;SDS011;42744;51.094;3.490;2023-06-01T09:45:29;16.57;;;14.87;;
56860;SDS011;42744;51.094;3.490;2023-06-01T09:48:14;18.50;;;12.70;;
56860;SDS011;42744;51.094;3.490;2023-06-01T09:50:45;16.93;;;12.83;;
56860;SDS011;42744;51.094;3.490;2023-06-01T09:53:11;19.40;;;14.27;;
56860;SDS011;42744;51.094;3.490;2023-06-01T09:55:43;19.87;;;14.43;;
56860;SDS011;42744;51.094;3.490;2023-06-01T09:58:26;21.07;;;14.83;;
56860;SDS011;42744;51.094;3.490;2023-06-01T10:00:52;18.20;;;13.83;;
56860;SDS011;42744;51.094;3.490;2023-06-01T10:03:21;20.07;;;15.90;;
56860;SDS011;42744;51.094;3.490;2023-06-01T10:05:47;21.90;;;15.50;;
56860;SDS011;42744;51.094;3.490;2023-06-01T10:08:15;18.43;;;15.63;;
56860;SDS011;42744;51.094;3.490;2023-06-01T10:10:44;21.07;;;15.57;;
56860;SDS011;42744;51.094;3.490;2023-06-01T10:13:13;20.27;;;14.53;;
56860;SDS011;42744;51.094;3.490;2023-06-01T10:15:40;15.97;;;13.43;;
56860;SDS011;42744;51.094;3.490;2023-06-01T10:18:06;18.13;;;14.87;;
56860;SDS011;42744;51.094;3.490;2023-06-01T10:20:36;18.53;;;15.50;;
56860;SDS011;42744;51.094;3.490;2023-06-01T10:23:03;18.37;;;15.33;;
56860;SDS011;42744;51.094;3.490;2023-06-01T10:25:30;20.80;;;14.50;;
56860;SDS011;42744;51.094;3.490;2023-06-01T10:28:06;20.13;;;14.37;;
56860;SDS011;42744;51.094;3.490;2023-06-01T10:30:35;19.27;;;15.27;;
56860;SDS011;42744;51.094;3.490;2023-06-01T10:33:02;19.43;;;15.17;;
56860;SDS011;42744;51.094;3.490;2023-06-01T10:43:02;16.07;;;13.30;;
56860;SDS011;42744;51.094;3.490;2023-06-01T10:45:35;18.93;;;13.60;;
56860;SDS011;42744;51.094;3.490;2023-06-01T10:48:10;18.37;;;13.77;;
56860;SDS011;42744;51.094;3.490;2023-06-01T10:50:37;16.40;;;13.63;;
56860;SDS011;42744;51.094;3.490;2023-06-01T10:56:24;17.67;;;12.90;;
56860;SDS011;42744;51.094;3.490;2023-06-01T11:01:32;17.43;;;13.43;;
56860;SDS011;42744;51.094;3.490;2023-06-01T11:04:02;15.67;;;13.47;;
56860;SDS011;42744;51.094;3.490;2023-06-01T11:06:29;18.57;;;14.83;;
56860;SDS011;42744;51.094;3.490;2023-06-01T11:08:58;19.10;;;12.90;;
56860;SDS011;42744;51.094;3.490;2023-06-01T11:14:21;20.10;;;14.50;;
56860;SDS011;42744;51.094;3.490;2023-06-01T11:16:51;16.92;;;13.98;;
56860;SDS011;42744;51.094;3.490;2023-06-01T11:19:20;18.80;;;13.57;;
56860;SDS011;42744;51.094;3.490;2023-06-01T11:21:56;18.15;;;12.57;;
56860;SDS011;42744;51.094;3.490;2023-06-01T11:24:31;18.62;;;13.62;;
56860;SDS011;42744;51.094;3.490;2023-06-01T11:27:08;18.20;;;13.77;;
56860;SDS011;42744;51.094;3.490;2023-06-01T11:29:36;18.55;;;14.02;;
56860;SDS011;42744;51.094;3.490;2023-06-01T11:32:03;19.98;;;13.65;;
56860;SDS011;42744;51.094;3.490;2023-06-01T11:34:34;19.48;;;14.13;;
56860;SDS011;42744;51.094;3.490;2023-06-01T11:37:03;17.87;;;15.20;;
56860;SDS011;42744;51.094;3.490;2023-06-01T11:39:30;22.27;;;14.63;;
56860;SDS011;42744;51.094;3.490;2023-06-01T11:42:09;20.73;;;13.85;;
56860;SDS011;42744;51.094;3.490;2023-06-01T11:44:37;19.33;;;13.93;;
56860;SDS011;42744;51.094;3.490;2023-06-01T11:47:05;18.83;;;14.25;;
56860;SDS011;42744;51.094;3.490;2023-06-01T11:49:51;23.08;;;15.93;;
56860;SDS011;42744;51.094;3.490;2023-06-01T11:52:17;22.95;;;14.20;;
56860;SDS011;42744;51.094;3.490;2023-06-01T11:54:44;19.00;;;13.57;;
56860;SDS011;42744;51.094;3.490;2023-06-01T11:57:11;22.37;;;13.95;;
56860;SDS011;42744;51.094;3.490;2023-06-01T11:59:38;15.70;;;13.25;;
56860;SDS011;42744;51.094;3.490;2023-06-01T12:02:23;16.67;;;12.98;;
56860;SDS011;42744;51.094;3.490;2023-06-01T12:04:58;14.63;;;12.27;;
56860;SDS011;42744;51.094;3.490;2023-06-01T12:07:27;18.55;;;14.50;;
56860;SDS011;42744;51.094;3.490;2023-06-01T12:09:53;19.02;;;13.02;;
56860;SDS011;42744;51.094;3.490;2023-06-01T12:12:23;19.77;;;13.05;;
56860;SDS011;42744;51.094;3.490;2023-06-01T12:14:51;17.20;;;12.32;;
56860;SDS011;42744;51.094;3.490;2023-06-01T12:17:17;19.25;;;11.45;;
56860;SDS011;42744;51.094;3.490;2023-06-01T12:19:44;15.95;;;11.85;;
56860;SDS011;42744;51.094;3.490;2023-06-01T12:22:14;16.65;;;11.35;;
56860;SDS011;42744;51.094;3.490;2023-06-01T12:24:44;13.60;;;10.80;;
56860;SDS011;42744;51.094;3.490;2023-06-01T12:29:45;17.40;;;10.82;;
56860;SDS011;42744;51.094;3.490;2023-06-01T12:32:13;18.15;;;12.77;;
56860;SDS011;42744;51.094;3.490;2023-06-01T12:34:43;17.00;;;11.25;;
56860;SDS011;42744;51.094;3.490;2023-06-01T12:37:14;15.23;;;9.93;;
56860;SDS011;42744;51.094;3.490;2023-06-01T12:39:41;14.68;;;10.00;;
56860;SDS011;42744;51.094;3.490;2023-06-01T12:42:08;16.02;;;10.80;;
56860;SDS011;42744;51.094;3.490;2023-06-01T12:44:35;13.23;;;9.57;;
56860;SDS011;42744;51.094;3.490;2023-06-01T12:47:02;15.57;;;9.90;;
56860;SDS011;42744;51.094;3.490;2023-06-01T12:49:29;17.33;;;9.95;;
56860;SDS011;42744;51.094;3.490;2023-06-01T12:51:55;11.55;;;9.40;;
56860;SDS011;42744;51.094;3.490;2023-06-01T12:54:21;13.62;;;9.75;;
56860;SDS011;42744;51.094;3.490;2023-06-01T12:56:47;14.52;;;10.40;;
56860;SDS011;42744;51.094;3.490;2023-06-01T12:59:15;15.50;;;8.48;;
56860;SDS011;42744;51.094;3.490;2023-06-01T13:01:42;13.75;;;8.82;;
56860;SDS011;42744;51.094;3.490;2023-06-01T13:04:08;14.32;;;8.60;;
56860;SDS011;42744;51.094;3.490;2023-06-01T13:06:34;13.13;;;7.93;;
56860;SDS011;42744;51.094;3.490;2023-06-01T13:09:01;13.35;;;7.32;;
56860;SDS011;42744;51.094;3.490;2023-06-01T13:11:27;11.88;;;8.15;;
56860;SDS011;42744;51.094;3.490;2023-06-01T13:13:54;11.20;;;7.55;;
56860;SDS011;42744;51.094;3.490;2023-06-01T13:16:20;11.48;;;7.10;;
56860;SDS011;42744;51.094;3.490;2023-06-01T13:18:46;12.20;;;7.10;;
56860;SDS011;42744;51.094;3.490;2023-06-01T13:21:16;10.05;;;6.57;;
56860;SDS011;42744;51.094;3.490;2023-06-01T13:23:43;10.82;;;6.90;;
56860;SDS011;42744;51.094;3.490;2023-06-01T13:26:09;8.88;;;6.28;;
56860;SDS011;42744;51.094;3.490;2023-06-01T13:28:36;11.10;;;5.87;;
56860;SDS011;42744;51.094;3.490;2023-06-01T13:31:02;10.60;;;6.30;;
56860;SDS011;42744;51.094;3.490;2023-06-01T13:33:28;11.98;;;6.60;;
56860;SDS011;42744;51.094;3.490;2023-06-01T13:35:55;11.63;;;5.80;;
56860;SDS011;42744;51.094;3.490;2023-06-01T13:38:21;9.30;;;6.07;;
56860;SDS011;42744;51.094;3.490;2023-06-01T13:40:47;8.07;;;5.60;;
56860;SDS011;42744;51.094;3.490;2023-06-01T13:43:13;11.23;;;5.80;;
56860;SDS011;42744;51.094;3.490;2023-06-01T13:45:39;9.75;;;5.95;;
56860;SDS011;42744;51.094;3.490;2023-06-01T13:48:06;13.90;;;6.10;;
56860;SDS011;42744;51.094;3.490;2023-06-01T13:50:32;9.32;;;6.22;;
56860;SDS011;42744;51.094;3.490;2023-06-01T13:52:58;13.13;;;5.62;;
56860;SDS011;42744;51.094;3.490;2023-06-01T13:55:24;9.27;;;6.22;;
56860;SDS011;42744;51.094;3.490;2023-06-01T13:57:51;9.48;;;6.03;;
56860;SDS011;42744;51.094;3.490;2023-06-01T14:00:17;9.52;;;5.35;;
56860;SDS011;42744;51.094;3.490;2023-06-01T14:02:43;9.65;;;5.95;;
56860;SDS011;42744;51.094;3.490;2023-06-01T14:05:09;8.75;;;5.68;;
56860;SDS011;42744;51.094;3.490;2023-06-01T14:07:37;9.50;;;5.43;;
56860;SDS011;42744;51.094;3.490;2023-06-01T14:10:04;10.63;;;5.15;;
56860;SDS011;42744;51.094;3.490;2023-06-01T14:12:31;7.87;;;5.22;;
56860;SDS011;42744;51.094;3.490;2023-06-01T14:14:57;10.07;;;4.45;;
56860;SDS011;42744;51.094;3.490;2023-06-01T14:17:23;9.45;;;4.97;;
56860;SDS011;42744;51.094;3.490;2023-06-01T14:19:49;9.50;;;4.62;;
56860;SDS011;42744;51.094;3.490;2023-06-01T14:22:17;10.63;;;3.80;;
56860;SDS011;42744;51.094;3.490;2023-06-01T14:24:43;6.62;;;4.78;;
56860;SDS011;42744;51.094;3.490;2023-06-01T14:27:10;9.38;;;4.62;;
56860;SDS011;42744;51.094;3.490;2023-06-01T14:29:36;8.93;;;5.32;;
56860;SDS011;42744;51.094;3.490;2023-06-01T14:32:02;7.97;;;4.97;;
56860;SDS011;42744;51.094;3.490;2023-06-01T14:34:28;9.57;;;4.37;;
56860;SDS011;42744;51.094;3.490;2023-06-01T14:36:54;8.52;;;4.65;;
56860;SDS011;42744;51.094;3.490;2023-06-01T14:39:20;6.93;;;4.25;;
56860;SDS011;42744;51.094;3.490;2023-06-01T14:41:46;7.45;;;4.40;;
56860;SDS011;42744;51.094;3.490;2023-06-01T14:44:12;5.95;;;4.50;;
56860;SDS011;42744;51.094;3.490;2023-06-01T14:46:38;11.73;;;4.45;;
56860;SDS011;42744;51.094;3.490;2023-06-01T14:49:06;8.02;;;4.65;;
56860;SDS011;42744;51.094;3.490;2023-06-01T14:51:32;8.95;;;4.03;;
56860;SDS011;42744;51.094;3.490;2023-06-01T14:53:58;5.30;;;3.58;;
56860;SDS011;42744;51.094;3.490;2023-06-01T14:56:24;10.40;;;4.32;;
56860;SDS011;42744;51.094;3.490;2023-06-01T14:58:51;8.80;;;4.03;;
56860;SDS011;42744;51.094;3.490;2023-06-01T15:01:18;6.07;;;4.05;;
56860;SDS011;42744;51.094;3.490;2023-06-01T15:03:44;7.82;;;3.95;;
56860;SDS011;42744;51.094;3.490;2023-06-01T15:06:10;8.60;;;3.30;;